sensor_id;sensor_type;location;lat;lon;timestamp;P1;durP1;ratioP1;P2;durP2;ratioP2
47155;SDS011;32908;52.344;16.858;2023-08-21T00:01:25;6.80;;;5.70;;
47155;SDS011;32908;52.344;16.858;2023-08-21T00:03:56;5.90;;;4.70;;
47155;SDS011;32908;52.344;16.858;2023-08-21T00:06:26;5.20;;;4.70;;
47155;SDS011;32908;52.344;16.858;2023-08-21T00:08:57;5.40;;;4.10;;
47155;SDS011;32908;52.344;16.858;2023-08-21T00:11:28;4.90;;;3.80;;
47155;SDS011;32908;52.344;16.858;2023-08-21T00:13:59;5.70;;;3.90;;
47155;SDS011;32908;52.344;16.858;2023-08-21T00:16:30;4.70;;;3.80;;
47155;SDS011;32908;52.344;16.858;2023-08-21T00:19:02;5.10;;;3.60;;
47155;SDS011;32908;52.344;16.858;2023-08-21T00:21:33;4.80;;;3.70;;
47155;SDS011;32908;52.344;16.858;2023-08-21T00:24:04;5.30;;;4.00;;
47155;SDS011;32908;52.344;16.858;2023-08-21T00:26:35;4.80;;;4.00;;
47155;SDS011;32908;52.344;16.858;2023-08-21T00:29:06;6.30;;;4.30;;
47155;SDS011;32908;52.344;16.858;2023-08-21T00:31:37;5.30;;;3.70;;
47155;SDS011;32908;52.344;16.858;2023-08-21T00:34:07;3.90;;;3.20;;
47155;SDS011;32908;52.344;16.858;2023-08-21T00:36:38;4.10;;;3.60;;
47155;SDS011;32908;52.344;16.858;2023-08-21T00:39:09;4.50;;;3.60;;
47155;SDS011;32908;52.344;16.858;2023-08-21T00:41:40;5.20;;;3.50;;
47155;SDS011;32908;52.344;16.858;2023-08-21T00:44:11;4.00;;;3.30;;
47155;SDS011;32908;52.344;16.858;2023-08-21T00:46:42;5.30;;;3.60;;
47155;SDS011;32908;52.344;16.858;2023-08-21T00:49:13;4.20;;;3.30;;
47155;SDS011;32908;52.344;16.858;2023-08-21T00:51:44;7.80;;;3.20;;
47155;SDS011;32908;52.344;16.858;2023-08-21T00:54:16;3.00;;;2.50;;
47155;SDS011;32908;52.344;16.858;2023-08-21T00:56:48;4.40;;;3.00;;
47155;SDS011;32908;52.344;16.858;2023-08-21T00:59:20;4.20;;;3.00;;
47155;SDS011;32908;52.344;16.858;2023-08-21T01:01:51;4.70;;;3.00;;
47155;SDS011;32908;52.344;16.858;2023-08-21T01:04:22;5.30;;;3.50;;
47155;SDS011;32908;52.344;16.858;2023-08-21T01:06:52;6.60;;;3.20;;
47155;SDS011;32908;52.344;16.858;2023-08-21T01:09:24;7.40;;;3.70;;
47155;SDS011;32908;52.344;16.858;2023-08-21T01:11:58;5.30;;;3.50;;
47155;SDS011;32908;52.344;16.858;2023-08-21T01:14:33;4.30;;;3.60;;
47155;SDS011;32908;52.344;16.858;2023-08-21T01:17:08;6.90;;;3.60;;
47155;SDS011;32908;52.344;16.858;2023-08-21T01:19:43;5.00;;;3.60;;
47155;SDS011;32908;52.344;16.858;2023-08-21T01:22:15;6.40;;;4.40;;
47155;SDS011;32908;52.344;16.858;2023-08-21T01:24:46;4.50;;;3.90;;
47155;SDS011;32908;52.344;16.858;2023-08-21T01:27:17;4.30;;;3.90;;
47155;SDS011;32908;52.344;16.858;2023-08-21T01:29:48;5.70;;;4.20;;
47155;SDS011;32908;52.344;16.858;2023-08-21T01:32:20;5.30;;;4.00;;
47155;SDS011;32908;52.344;16.858;2023-08-21T01:34:53;4.40;;;3.60;;
47155;SDS011;32908;52.344;16.858;2023-08-21T01:37:25;4.20;;;3.80;;
47155;SDS011;32908;52.344;16.858;2023-08-21T01:39:59;6.30;;;3.80;;
47155;SDS011;32908;52.344;16.858;2023-08-21T01:42:29;5.70;;;4.20;;
47155;SDS011;32908;52.344;16.858;2023-08-21T01:45:00;6.90;;;4.20;;
47155;SDS011;32908;52.344;16.858;2023-08-21T01:47:31;6.20;;;4.50;;
47155;SDS011;32908;52.344;16.858;2023-08-21T01:50:03;4.50;;;3.80;;
47155;SDS011;32908;52.344;16.858;2023-08-21T01:52:35;4.90;;;3.90;;
47155;SDS011;32908;52.344;16.858;2023-08-21T01:55:06;10.10;;;4.40;;
47155;SDS011;32908;52.344;16.858;2023-08-21T01:57:38;5.00;;;4.20;;
47155;SDS011;32908;52.344;16.858;2023-08-21T02:00:11;4.60;;;3.60;;
47155;SDS011;32908;52.344;16.858;2023-08-21T02:02:43;5.30;;;3.20;;
47155;SDS011;32908;52.344;16.858;2023-08-21T02:05:14;5.30;;;3.70;;
47155;SDS011;32908;52.344;16.858;2023-08-21T02:07:44;5.10;;;3.50;;
47155;SDS011;32908;52.344;16.858;2023-08-21T02:10:15;4.00;;;3.20;;
47155;SDS011;32908;52.344;16.858;2023-08-21T02:12:46;4.10;;;3.10;;
47155;SDS011;32908;52.344;16.858;2023-08-21T02:15:18;6.70;;;3.50;;
47155;SDS011;32908;52.344;16.858;2023-08-21T02:17:49;6.70;;;3.20;;
47155;SDS011;32908;52.344;16.858;2023-08-21T02:20:20;3.80;;;2.90;;
47155;SDS011;32908;52.344;16.858;2023-08-21T02:22:51;3.70;;;2.80;;
47155;SDS011;32908;52.344;16.858;2023-08-21T02:25:22;3.70;;;2.50;;
47155;SDS011;32908;52.344;16.858;2023-08-21T02:27:52;4.00;;;2.80;;
47155;SDS011;32908;52.344;16.858;2023-08-21T02:30:23;4.80;;;2.80;;
47155;SDS011;32908;52.344;16.858;2023-08-21T02:32:54;3.70;;;2.70;;
47155;SDS011;32908;52.344;16.858;2023-08-21T02:35:25;5.50;;;2.90;;
47155;SDS011;32908;52.344;16.858;2023-08-21T02:37:56;4.00;;;2.90;;
47155;SDS011;32908;52.344;16.858;2023-08-21T02:40:27;6.50;;;3.00;;
47155;SDS011;32908;52.344;16.858;2023-08-21T02:42:58;4.10;;;3.00;;
47155;SDS011;32908;52.344;16.858;2023-08-21T02:45:29;5.20;;;3.10;;
47155;SDS011;32908;52.344;16.858;2023-08-21T02:48:00;3.80;;;3.10;;
47155;SDS011;32908;52.344;16.858;2023-08-21T02:50:32;4.90;;;3.40;;
47155;SDS011;32908;52.344;16.858;2023-08-21T02:53:03;4.70;;;3.00;;
47155;SDS011;32908;52.344;16.858;2023-08-21T02:55:33;5.20;;;3.30;;
47155;SDS011;32908;52.344;16.858;2023-08-21T02:58:04;4.70;;;3.00;;
47155;SDS011;32908;52.344;16.858;2023-08-21T03:00:35;4.10;;;3.20;;
47155;SDS011;32908;52.344;16.858;2023-08-21T03:03:06;7.80;;;3.80;;
47155;SDS011;32908;52.344;16.858;2023-08-21T03:05:36;4.70;;;3.40;;
47155;SDS011;32908;52.344;16.858;2023-08-21T03:08:07;4.80;;;3.20;;
47155;SDS011;32908;52.344;16.858;2023-08-21T03:10:38;6.00;;;3.50;;
47155;SDS011;32908;52.344;16.858;2023-08-21T03:13:08;7.00;;;3.50;;
47155;SDS011;32908;52.344;16.858;2023-08-21T03:15:39;3.60;;;3.20;;
47155;SDS011;32908;52.344;16.858;2023-08-21T03:18:10;4.20;;;3.20;;
47155;SDS011;32908;52.344;16.858;2023-08-21T03:20:44;4.50;;;3.40;;
47155;SDS011;32908;52.344;16.858;2023-08-21T03:23:15;6.30;;;3.90;;
47155;SDS011;32908;52.344;16.858;2023-08-21T03:25:46;7.00;;;3.50;;
47155;SDS011;32908;52.344;16.858;2023-08-21T03:28:16;4.10;;;3.70;;
47155;SDS011;32908;52.344;16.858;2023-08-21T03:30:47;5.80;;;3.90;;
47155;SDS011;32908;52.344;16.858;2023-08-21T03:33:17;5.70;;;4.20;;
47155;SDS011;32908;52.344;16.858;2023-08-21T03:35:48;7.40;;;3.90;;
47155;SDS011;32908;52.344;16.858;2023-08-21T03:38:23;6.50;;;3.90;;
47155;SDS011;32908;52.344;16.858;2023-08-21T03:40:54;7.00;;;3.90;;
47155;SDS011;32908;52.344;16.858;2023-08-21T03:43:25;5.50;;;3.90;;
47155;SDS011;32908;52.344;16.858;2023-08-21T03:45:56;6.20;;;4.00;;
47155;SDS011;32908;52.344;16.858;2023-08-21T03:48:26;4.90;;;3.80;;
47155;SDS011;32908;52.344;16.858;2023-08-21T03:50:57;6.80;;;3.70;;
47155;SDS011;32908;52.344;16.858;2023-08-21T03:53:28;5.40;;;3.70;;
47155;SDS011;32908;52.344;16.858;2023-08-21T03:55:59;6.50;;;4.30;;
47155;SDS011;32908;52.344;16.858;2023-08-21T03:58:29;4.90;;;3.80;;
47155;SDS011;32908;52.344;16.858;2023-08-21T04:01:00;8.10;;;4.70;;
47155;SDS011;32908;52.344;16.858;2023-08-21T04:03:31;5.80;;;4.20;;
47155;SDS011;32908;52.344;16.858;2023-08-21T04:06:02;8.30;;;4.80;;
47155;SDS011;32908;52.344;16.858;2023-08-21T04:08:33;5.80;;;4.40;;
47155;SDS011;32908;52.344;16.858;2023-08-21T04:11:04;5.60;;;4.30;;
47155;SDS011;32908;52.344;16.858;2023-08-21T04:13:34;13.10;;;4.20;;
47155;SDS011;32908;52.344;16.858;2023-08-21T04:16:05;8.40;;;4.30;;
47155;SDS011;32908;52.344;16.858;2023-08-21T04:18:36;9.50;;;4.20;;
47155;SDS011;32908;52.344;16.858;2023-08-21T04:21:07;7.50;;;4.50;;
47155;SDS011;32908;52.344;16.858;2023-08-21T04:23:37;6.80;;;4.40;;
47155;SDS011;32908;52.344;16.858;2023-08-21T04:26:08;7.60;;;4.70;;
47155;SDS011;32908;52.344;16.858;2023-08-21T04:28:39;8.90;;;3.90;;
47155;SDS011;32908;52.344;16.858;2023-08-21T04:31:10;7.70;;;4.00;;
47155;SDS011;32908;52.344;16.858;2023-08-21T04:33:41;10.10;;;6.20;;
47155;SDS011;32908;52.344;16.858;2023-08-21T04:36:15;8.00;;;6.00;;
47155;SDS011;32908;52.344;16.858;2023-08-21T04:38:46;10.30;;;5.60;;
47155;SDS011;32908;52.344;16.858;2023-08-21T04:41:16;8.90;;;5.20;;
47155;SDS011;32908;52.344;16.858;2023-08-21T04:43:47;8.30;;;4.90;;
47155;SDS011;32908;52.344;16.858;2023-08-21T04:46:18;8.90;;;5.60;;
47155;SDS011;32908;52.344;16.858;2023-08-21T04:48:49;9.10;;;4.90;;
47155;SDS011;32908;52.344;16.858;2023-08-21T04:51:19;9.30;;;5.10;;
47155;SDS011;32908;52.344;16.858;2023-08-21T04:53:50;9.50;;;5.30;;
47155;SDS011;32908;52.344;16.858;2023-08-21T04:56:21;8.90;;;5.30;;
47155;SDS011;32908;52.344;16.858;2023-08-21T04:58:51;8.10;;;5.90;;
47155;SDS011;32908;52.344;16.858;2023-08-21T05:01:22;9.10;;;5.90;;
47155;SDS011;32908;52.344;16.858;2023-08-21T05:03:53;10.00;;;5.10;;
47155;SDS011;32908;52.344;16.858;2023-08-21T05:06:23;8.20;;;5.10;;
47155;SDS011;32908;52.344;16.858;2023-08-21T05:08:54;7.60;;;5.00;;
47155;SDS011;32908;52.344;16.858;2023-08-21T05:11:25;7.20;;;4.80;;
47155;SDS011;32908;52.344;16.858;2023-08-21T05:13:55;6.90;;;4.80;;
47155;SDS011;32908;52.344;16.858;2023-08-21T05:16:26;13.90;;;5.50;;
47155;SDS011;32908;52.344;16.858;2023-08-21T05:18:57;12.90;;;5.20;;
47155;SDS011;32908;52.344;16.858;2023-08-21T05:21:27;8.90;;;4.30;;
47155;SDS011;32908;52.344;16.858;2023-08-21T05:23:58;8.50;;;4.90;;
47155;SDS011;32908;52.344;16.858;2023-08-21T05:26:29;8.10;;;4.20;;
47155;SDS011;32908;52.344;16.858;2023-08-21T05:28:59;7.30;;;4.00;;
47155;SDS011;32908;52.344;16.858;2023-08-21T05:31:30;10.50;;;4.20;;
47155;SDS011;32908;52.344;16.858;2023-08-21T05:34:01;12.30;;;4.20;;
47155;SDS011;32908;52.344;16.858;2023-08-21T05:36:32;4.60;;;3.90;;
47155;SDS011;32908;52.344;16.858;2023-08-21T05:39:04;7.60;;;4.40;;
47155;SDS011;32908;52.344;16.858;2023-08-21T05:41:36;10.00;;;4.20;;
47155;SDS011;32908;52.344;16.858;2023-08-21T05:44:07;6.70;;;4.30;;
47155;SDS011;32908;52.344;16.858;2023-08-21T05:46:38;6.80;;;3.10;;
47155;SDS011;32908;52.344;16.858;2023-08-21T05:49:08;7.00;;;2.70;;
47155;SDS011;32908;52.344;16.858;2023-08-21T05:51:39;4.10;;;2.90;;
47155;SDS011;32908;52.344;16.858;2023-08-21T05:54:09;6.30;;;3.20;;
47155;SDS011;32908;52.344;16.858;2023-08-21T05:56:40;3.40;;;2.60;;
47155;SDS011;32908;52.344;16.858;2023-08-21T05:59:11;6.00;;;3.50;;
47155;SDS011;32908;52.344;16.858;2023-08-21T06:01:42;3.40;;;2.60;;
47155;SDS011;32908;52.344;16.858;2023-08-21T06:04:12;4.10;;;3.30;;
47155;SDS011;32908;52.344;16.858;2023-08-21T06:06:43;6.50;;;3.00;;
47155;SDS011;32908;52.344;16.858;2023-08-21T06:09:14;4.70;;;3.40;;
47155;SDS011;32908;52.344;16.858;2023-08-21T06:11:45;6.50;;;3.20;;
47155;SDS011;32908;52.344;16.858;2023-08-21T06:14:16;6.80;;;3.10;;
47155;SDS011;32908;52.344;16.858;2023-08-21T06:16:47;5.90;;;3.60;;
47155;SDS011;32908;52.344;16.858;2023-08-21T06:19:17;6.80;;;3.20;;
47155;SDS011;32908;52.344;16.858;2023-08-21T06:21:48;9.20;;;2.80;;
47155;SDS011;32908;52.344;16.858;2023-08-21T06:24:19;4.60;;;2.80;;
47155;SDS011;32908;52.344;16.858;2023-08-21T06:26:50;3.90;;;2.60;;
47155;SDS011;32908;52.344;16.858;2023-08-21T06:29:21;4.20;;;1.80;;
47155;SDS011;32908;52.344;16.858;2023-08-21T06:31:52;4.90;;;2.00;;
47155;SDS011;32908;52.344;16.858;2023-08-21T06:34:22;4.80;;;2.00;;
47155;SDS011;32908;52.344;16.858;2023-08-21T06:36:53;7.10;;;1.90;;
47155;SDS011;32908;52.344;16.858;2023-08-21T06:39:25;5.00;;;2.00;;
47155;SDS011;32908;52.344;16.858;2023-08-21T06:41:55;4.60;;;1.90;;
47155;SDS011;32908;52.344;16.858;2023-08-21T06:44:27;3.80;;;2.20;;
47155;SDS011;32908;52.344;16.858;2023-08-21T06:46:58;3.40;;;1.60;;
47155;SDS011;32908;52.344;16.858;2023-08-21T06:49:29;3.40;;;1.80;;
47155;SDS011;32908;52.344;16.858;2023-08-21T06:52:00;3.90;;;1.70;;
47155;SDS011;32908;52.344;16.858;2023-08-21T06:54:31;3.20;;;1.90;;
47155;SDS011;32908;52.344;16.858;2023-08-21T06:57:02;4.00;;;1.70;;
47155;SDS011;32908;52.344;16.858;2023-08-21T06:59:33;5.50;;;2.00;;
47155;SDS011;32908;52.344;16.858;2023-08-21T07:02:05;6.30;;;1.70;;
47155;SDS011;32908;52.344;16.858;2023-08-21T07:04:35;2.80;;;1.60;;
47155;SDS011;32908;52.344;16.858;2023-08-21T07:07:06;5.10;;;1.80;;
47155;SDS011;32908;52.344;16.858;2023-08-21T07:09:37;7.80;;;2.50;;
47155;SDS011;32908;52.344;16.858;2023-08-21T07:12:08;7.50;;;2.60;;
47155;SDS011;32908;52.344;16.858;2023-08-21T07:14:39;4.00;;;2.20;;
47155;SDS011;32908;52.344;16.858;2023-08-21T07:17:09;4.20;;;1.80;;
47155;SDS011;32908;52.344;16.858;2023-08-21T07:19:40;3.90;;;1.90;;
47155;SDS011;32908;52.344;16.858;2023-08-21T07:22:10;4.60;;;2.00;;
47155;SDS011;32908;52.344;16.858;2023-08-21T07:24:41;4.20;;;1.90;;
47155;SDS011;32908;52.344;16.858;2023-08-21T07:27:12;3.80;;;2.30;;
47155;SDS011;32908;52.344;16.858;2023-08-21T07:29:42;4.70;;;1.90;;
47155;SDS011;32908;52.344;16.858;2023-08-21T07:32:13;4.60;;;1.60;;
47155;SDS011;32908;52.344;16.858;2023-08-21T07:34:43;6.00;;;2.20;;
47155;SDS011;32908;52.344;16.858;2023-08-21T07:37:14;5.50;;;1.70;;
47155;SDS011;32908;52.344;16.858;2023-08-21T07:39:44;4.00;;;1.80;;
47155;SDS011;32908;52.344;16.858;2023-08-21T07:42:15;5.00;;;1.70;;
47155;SDS011;32908;52.344;16.858;2023-08-21T07:44:46;4.40;;;1.80;;
47155;SDS011;32908;52.344;16.858;2023-08-21T07:47:16;5.70;;;2.30;;
47155;SDS011;32908;52.344;16.858;2023-08-21T07:49:47;3.10;;;1.70;;
47155;SDS011;32908;52.344;16.858;2023-08-21T07:52:18;6.70;;;2.10;;
47155;SDS011;32908;52.344;16.858;2023-08-21T07:54:50;4.00;;;1.80;;
47155;SDS011;32908;52.344;16.858;2023-08-21T07:57:21;2.60;;;1.90;;
47155;SDS011;32908;52.344;16.858;2023-08-21T07:59:52;5.90;;;1.90;;
47155;SDS011;32908;52.344;16.858;2023-08-21T08:02:22;3.20;;;1.70;;
47155;SDS011;32908;52.344;16.858;2023-08-21T08:04:53;7.50;;;1.90;;
47155;SDS011;32908;52.344;16.858;2023-08-21T08:07:24;4.70;;;2.20;;
47155;SDS011;32908;52.344;16.858;2023-08-21T08:09:56;4.60;;;2.10;;
47155;SDS011;32908;52.344;16.858;2023-08-21T08:12:27;5.70;;;2.00;;
47155;SDS011;32908;52.344;16.858;2023-08-21T08:14:57;5.00;;;2.00;;
47155;SDS011;32908;52.344;16.858;2023-08-21T08:17:28;4.50;;;2.10;;
47155;SDS011;32908;52.344;16.858;2023-08-21T08:19:59;5.00;;;1.80;;
47155;SDS011;32908;52.344;16.858;2023-08-21T08:22:29;7.10;;;2.00;;
47155;SDS011;32908;52.344;16.858;2023-08-21T08:25:00;6.90;;;2.60;;
47155;SDS011;32908;52.344;16.858;2023-08-21T08:27:32;4.50;;;1.80;;
47155;SDS011;32908;52.344;16.858;2023-08-21T08:30:03;4.00;;;2.30;;
47155;SDS011;32908;52.344;16.858;2023-08-21T08:32:36;3.40;;;1.80;;
47155;SDS011;32908;52.344;16.858;2023-08-21T08:35:08;6.60;;;2.00;;
47155;SDS011;32908;52.344;16.858;2023-08-21T08:37:39;4.30;;;1.90;;
47155;SDS011;32908;52.344;16.858;2023-08-21T08:40:09;6.00;;;2.40;;
47155;SDS011;32908;52.344;16.858;2023-08-21T08:42:41;6.30;;;1.90;;
47155;SDS011;32908;52.344;16.858;2023-08-21T08:45:12;4.70;;;2.20;;
47155;SDS011;32908;52.344;16.858;2023-08-21T08:47:43;4.90;;;2.20;;
47155;SDS011;32908;52.344;16.858;2023-08-21T08:50:14;6.50;;;2.00;;
47155;SDS011;32908;52.344;16.858;2023-08-21T08:52:46;4.40;;;2.00;;
47155;SDS011;32908;52.344;16.858;2023-08-21T08:55:17;2.70;;;1.90;;
47155;SDS011;32908;52.344;16.858;2023-08-21T08:57:48;4.90;;;1.90;;
47155;SDS011;32908;52.344;16.858;2023-08-21T09:00:19;6.80;;;2.50;;
47155;SDS011;32908;52.344;16.858;2023-08-21T09:02:50;5.00;;;2.20;;
47155;SDS011;32908;52.344;16.858;2023-08-21T09:05:22;8.90;;;2.20;;
47155;SDS011;32908;52.344;16.858;2023-08-21T09:08:10;9.40;;;2.40;;
47155;SDS011;32908;52.344;16.858;2023-08-21T09:10:41;3.10;;;1.90;;
47155;SDS011;32908;52.344;16.858;2023-08-21T09:13:13;5.70;;;2.30;;
47155;SDS011;32908;52.344;16.858;2023-08-21T09:15:46;6.00;;;2.00;;
47155;SDS011;32908;52.344;16.858;2023-08-21T09:18:17;3.80;;;1.80;;
47155;SDS011;32908;52.344;16.858;2023-08-21T09:20:48;5.10;;;2.10;;
47155;SDS011;32908;52.344;16.858;2023-08-21T09:23:19;4.50;;;2.00;;
47155;SDS011;32908;52.344;16.858;2023-08-21T09:25:50;4.40;;;2.40;;
47155;SDS011;32908;52.344;16.858;2023-08-21T09:28:20;8.20;;;2.30;;
47155;SDS011;32908;52.344;16.858;2023-08-21T09:30:52;3.60;;;2.10;;
47155;SDS011;32908;52.344;16.858;2023-08-21T09:33:23;4.90;;;2.10;;
47155;SDS011;32908;52.344;16.858;2023-08-21T09:35:55;5.70;;;2.00;;
47155;SDS011;32908;52.344;16.858;2023-08-21T09:38:26;4.70;;;1.90;;
47155;SDS011;32908;52.344;16.858;2023-08-21T09:40:57;5.70;;;2.20;;
47155;SDS011;32908;52.344;16.858;2023-08-21T09:43:30;4.30;;;1.90;;
47155;SDS011;32908;52.344;16.858;2023-08-21T09:46:01;4.10;;;1.90;;
47155;SDS011;32908;52.344;16.858;2023-08-21T09:48:32;7.20;;;1.90;;
47155;SDS011;32908;52.344;16.858;2023-08-21T09:51:03;4.70;;;2.30;;
47155;SDS011;32908;52.344;16.858;2023-08-21T09:53:34;3.70;;;2.00;;
47155;SDS011;32908;52.344;16.858;2023-08-21T09:56:05;6.20;;;2.50;;
47155;SDS011;32908;52.344;16.858;2023-08-21T09:58:36;4.20;;;2.20;;
47155;SDS011;32908;52.344;16.858;2023-08-21T10:01:07;9.50;;;2.50;;
47155;SDS011;32908;52.344;16.858;2023-08-21T10:03:41;4.70;;;1.70;;
47155;SDS011;32908;52.344;16.858;2023-08-21T10:06:15;2.50;;;1.80;;
47155;SDS011;32908;52.344;16.858;2023-08-21T10:08:48;2.80;;;2.00;;
47155;SDS011;32908;52.344;16.858;2023-08-21T10:11:19;3.80;;;2.50;;
47155;SDS011;32908;52.344;16.858;2023-08-21T10:13:50;4.50;;;2.00;;
47155;SDS011;32908;52.344;16.858;2023-08-21T10:16:22;3.30;;;1.90;;
47155;SDS011;32908;52.344;16.858;2023-08-21T10:18:53;7.10;;;1.90;;
47155;SDS011;32908;52.344;16.858;2023-08-21T10:21:23;6.70;;;1.80;;
47155;SDS011;32908;52.344;16.858;2023-08-21T10:23:55;3.10;;;2.10;;
47155;SDS011;32908;52.344;16.858;2023-08-21T10:26:25;7.20;;;2.10;;
47155;SDS011;32908;52.344;16.858;2023-08-21T10:28:58;5.10;;;2.00;;
47155;SDS011;32908;52.344;16.858;2023-08-21T10:31:35;3.50;;;1.80;;
47155;SDS011;32908;52.344;16.858;2023-08-21T10:34:07;7.90;;;2.00;;
47155;SDS011;32908;52.344;16.858;2023-08-21T10:37:02;3.60;;;2.00;;
47155;SDS011;32908;52.344;16.858;2023-08-21T10:39:38;4.60;;;1.80;;
47155;SDS011;32908;52.344;16.858;2023-08-21T10:42:10;3.50;;;1.90;;
47155;SDS011;32908;52.344;16.858;2023-08-21T10:44:52;5.50;;;2.00;;
47155;SDS011;32908;52.344;16.858;2023-08-21T10:47:32;5.70;;;2.00;;
47155;SDS011;32908;52.344;16.858;2023-08-21T10:50:04;3.10;;;1.90;;
47155;SDS011;32908;52.344;16.858;2023-08-21T10:52:36;2.90;;;1.80;;
47155;SDS011;32908;52.344;16.858;2023-08-21T10:55:09;4.10;;;2.30;;
47155;SDS011;32908;52.344;16.858;2023-08-21T10:57:41;3.10;;;2.00;;
47155;SDS011;32908;52.344;16.858;2023-08-21T11:00:13;4.30;;;1.70;;
47155;SDS011;32908;52.344;16.858;2023-08-21T11:02:45;3.50;;;1.90;;
47155;SDS011;32908;52.344;16.858;2023-08-21T11:05:17;3.40;;;2.00;;
47155;SDS011;32908;52.344;16.858;2023-08-21T11:07:48;4.00;;;1.80;;
47155;SDS011;32908;52.344;16.858;2023-08-21T11:10:21;2.30;;;1.90;;
47155;SDS011;32908;52.344;16.858;2023-08-21T11:12:53;3.10;;;1.70;;
47155;SDS011;32908;52.344;16.858;2023-08-21T11:15:24;2.90;;;1.90;;
47155;SDS011;32908;52.344;16.858;2023-08-21T11:17:56;2.50;;;1.60;;
47155;SDS011;32908;52.344;16.858;2023-08-21T11:20:31;3.40;;;1.90;;
47155;SDS011;32908;52.344;16.858;2023-08-21T11:23:03;3.90;;;1.80;;
47155;SDS011;32908;52.344;16.858;2023-08-21T11:25:35;5.00;;;1.80;;
47155;SDS011;32908;52.344;16.858;2023-08-21T11:28:08;3.10;;;1.60;;
47155;SDS011;32908;52.344;16.858;2023-08-21T11:30:39;3.60;;;1.80;;
47155;SDS011;32908;52.344;16.858;2023-08-21T11:33:10;3.90;;;2.00;;
47155;SDS011;32908;52.344;16.858;2023-08-21T11:35:42;4.50;;;2.10;;
47155;SDS011;32908;52.344;16.858;2023-08-21T11:38:16;3.80;;;2.10;;
47155;SDS011;32908;52.344;16.858;2023-08-21T11:40:54;4.20;;;1.90;;
47155;SDS011;32908;52.344;16.858;2023-08-21T11:43:35;8.90;;;3.70;;
47155;SDS011;32908;52.344;16.858;2023-08-21T11:46:07;8.80;;;3.70;;
47155;SDS011;32908;52.344;16.858;2023-08-21T11:48:39;7.70;;;2.50;;
47155;SDS011;32908;52.344;16.858;2023-08-21T11:51:10;16.40;;;5.50;;
47155;SDS011;32908;52.344;16.858;2023-08-21T11:53:41;12.70;;;4.50;;
47155;SDS011;32908;52.344;16.858;2023-08-21T11:56:14;3.40;;;2.10;;
47155;SDS011;32908;52.344;16.858;2023-08-21T11:58:46;6.70;;;2.30;;
47155;SDS011;32908;52.344;16.858;2023-08-21T12:01:18;20.20;;;8.10;;
47155;SDS011;32908;52.344;16.858;2023-08-21T12:03:49;16.50;;;7.40;;
47155;SDS011;32908;52.344;16.858;2023-08-21T12:06:23;16.60;;;8.10;;
47155;SDS011;32908;52.344;16.858;2023-08-21T12:08:54;20.90;;;7.60;;
47155;SDS011;32908;52.344;16.858;2023-08-21T12:11:25;7.30;;;3.00;;
47155;SDS011;32908;52.344;16.858;2023-08-21T12:13:56;8.80;;;2.90;;
47155;SDS011;32908;52.344;16.858;2023-08-21T12:16:26;6.80;;;3.90;;
47155;SDS011;32908;52.344;16.858;2023-08-21T12:18:57;23.60;;;9.90;;
47155;SDS011;32908;52.344;16.858;2023-08-21T12:21:29;10.70;;;5.30;;
47155;SDS011;32908;52.344;16.858;2023-08-21T12:24:02;12.10;;;4.90;;
47155;SDS011;32908;52.344;16.858;2023-08-21T12:26:34;12.50;;;5.70;;
47155;SDS011;32908;52.344;16.858;2023-08-21T12:29:05;32.70;;;13.50;;
47155;SDS011;32908;52.344;16.858;2023-08-21T12:31:35;19.90;;;8.20;;
47155;SDS011;32908;52.344;16.858;2023-08-21T12:34:06;12.60;;;5.50;;
47155;SDS011;32908;52.344;16.858;2023-08-21T12:36:37;9.40;;;4.70;;
47155;SDS011;32908;52.344;16.858;2023-08-21T12:39:08;6.70;;;3.50;;
47155;SDS011;32908;52.344;16.858;2023-08-21T12:41:38;12.30;;;4.00;;
47155;SDS011;32908;52.344;16.858;2023-08-21T12:44:09;4.00;;;2.70;;
47155;SDS011;32908;52.344;16.858;2023-08-21T12:46:40;15.00;;;6.70;;
47155;SDS011;32908;52.344;16.858;2023-08-21T12:49:12;6.00;;;3.20;;
47155;SDS011;32908;52.344;16.858;2023-08-21T12:51:43;12.00;;;4.70;;
47155;SDS011;32908;52.344;16.858;2023-08-21T12:54:14;6.90;;;3.10;;
47155;SDS011;32908;52.344;16.858;2023-08-21T12:56:45;13.50;;;5.50;;
47155;SDS011;32908;52.344;16.858;2023-08-21T12:59:15;7.20;;;3.70;;
47155;SDS011;32908;52.344;16.858;2023-08-21T13:01:46;8.50;;;3.90;;
47155;SDS011;32908;52.344;16.858;2023-08-21T13:04:17;7.60;;;3.10;;
47155;SDS011;32908;52.344;16.858;2023-08-21T13:06:48;8.20;;;3.50;;
47155;SDS011;32908;52.344;16.858;2023-08-21T13:09:19;6.00;;;3.70;;
47155;SDS011;32908;52.344;16.858;2023-08-21T13:11:51;5.30;;;3.50;;
47155;SDS011;32908;52.344;16.858;2023-08-21T13:14:22;14.60;;;5.10;;
47155;SDS011;32908;52.344;16.858;2023-08-21T13:16:53;19.70;;;7.90;;
47155;SDS011;32908;52.344;16.858;2023-08-21T13:19:24;24.50;;;9.80;;
47155;SDS011;32908;52.344;16.858;2023-08-21T13:21:54;46.50;;;15.80;;
47155;SDS011;32908;52.344;16.858;2023-08-21T13:24:25;29.70;;;12.30;;
47155;SDS011;32908;52.344;16.858;2023-08-21T13:26:56;54.90;;;21.30;;
47155;SDS011;32908;52.344;16.858;2023-08-21T13:29:27;24.80;;;9.70;;
47155;SDS011;32908;52.344;16.858;2023-08-21T13:31:58;16.20;;;7.40;;
47155;SDS011;32908;52.344;16.858;2023-08-21T13:34:29;6.70;;;3.40;;
47155;SDS011;32908;52.344;16.858;2023-08-21T13:36:59;7.10;;;3.40;;
47155;SDS011;32908;52.344;16.858;2023-08-21T13:39:31;8.30;;;3.80;;
47155;SDS011;32908;52.344;16.858;2023-08-21T13:42:02;25.10;;;8.50;;
47155;SDS011;32908;52.344;16.858;2023-08-21T13:44:33;11.80;;;5.00;;
47155;SDS011;32908;52.344;16.858;2023-08-21T13:47:05;31.20;;;11.60;;
47155;SDS011;32908;52.344;16.858;2023-08-21T13:49:36;35.60;;;13.00;;
47155;SDS011;32908;52.344;16.858;2023-08-21T13:52:06;45.60;;;16.70;;
47155;SDS011;32908;52.344;16.858;2023-08-21T13:54:37;31.50;;;12.20;;
47155;SDS011;32908;52.344;16.858;2023-08-21T13:57:08;12.30;;;5.30;;
47155;SDS011;32908;52.344;16.858;2023-08-21T13:59:39;14.40;;;6.10;;
47155;SDS011;32908;52.344;16.858;2023-08-21T14:02:09;28.00;;;10.30;;
47155;SDS011;32908;52.344;16.858;2023-08-21T14:04:40;18.70;;;8.70;;
47155;SDS011;32908;52.344;16.858;2023-08-21T14:07:11;23.40;;;8.10;;
47155;SDS011;32908;52.344;16.858;2023-08-21T14:09:42;8.80;;;4.60;;
47155;SDS011;32908;52.344;16.858;2023-08-21T14:12:12;10.20;;;4.40;;
47155;SDS011;32908;52.344;16.858;2023-08-21T14:14:43;7.40;;;4.80;;
47155;SDS011;32908;52.344;16.858;2023-08-21T14:17:14;11.10;;;4.20;;
47155;SDS011;32908;52.344;16.858;2023-08-21T14:19:45;23.80;;;8.90;;
47155;SDS011;32908;52.344;16.858;2023-08-21T14:22:16;36.80;;;11.50;;
47155;SDS011;32908;52.344;16.858;2023-08-21T14:24:46;22.70;;;8.10;;
